Terminal Aerodrome Forecast
Issued by NWS

Home | Current Version | Previous Version | Graphics & Text | Print | Product List | Glossary On
Versions: 1 2 3 4 5 6 7 8 9 10 11 12 13 14 15 16 17 18 19 20 21 22 23 24 25 26 27 28 29 30 31 32 33 34
530
FTUS43 KABR 201140
TAFATY
TAF
KATY 201140Z 2012/2112 15009KT 3SM BR OVC005
      TEMPO 2012/2015 1SM BR OVC003
     FM201500 15008KT 1/2SM FG OVC003
     FM201900 15009KT 1SM BR OVC003
     FM210200 14006KT 1/4SM FG OVC002=

USA.gov is the U.S. government's official web portal to all federal, state and local government web resources and services.